Time;durP1;ratioP1;P1;durP2;ratioP2;P2;SDS_P1;SDS_P2;PMS_P1;PMS_P2;Temp;Humidity;BMP_temperature;BMP_pressure;BME280_temperature;BME280_humidity;BME280_pressure;Samples;Min_cycle;Max_cycle;Signal;HPM_P1;HPM_P2
2023/04/18 00:03:23;;;;;;;;;;;19.30;49.00;;;;;;10368631;28;890;-76
2023/04/18 00:08:19;;;;;;;;;;;19.30;49.00;;;;;;10369273;28;903;-76
2023/04/18 00:13:17;;;;;;;;;;;19.30;49.00;;;;;;10369280;28;1961;-76
2023/04/18 00:18:14;;;;;;;;;;;19.30;49.10;;;;;;10368648;28;799;-76
2023/04/18 00:23:12;;;;;;;;;;;19.30;49.10;;;;;;10368061;28;973;-76
2023/04/18 00:28:08;;;;;;;;;;;19.30;49.10;;;;;;10367623;28;878;-75
2023/04/18 00:33:04;;;;;;;;;;;19.30;49.00;;;;;;10367287;28;1977;-76
2023/04/18 00:37:59;;;;;;;;;;;19.30;49.00;;;;;;10367429;28;884;-75
2023/04/18 00:42:54;;;;;;;;;;;19.20;49.00;;;;;;10367232;28;926;-76
2023/04/18 00:47:50;;;;;;;;;;;19.30;49.10;;;;;;10367644;28;917;-76
2023/04/18 00:52:45;;;;;;;;;;;19.30;49.00;;;;;;10366931;28;1890;-76
2023/04/18 00:57:41;;;;;;;;;;;19.30;49.00;;;;;;10366290;28;1298;-75
2023/04/18 01:02:36;;;;;;;;;;;19.30;49.00;;;;;;10366722;28;854;-75
2023/04/18 01:07:32;;;;;;;;;;;19.30;49.00;;;;;;10366656;28;960;-76
2023/04/18 01:12:27;;;;;;;;;;;19.30;49.00;;;;;;10366453;28;1905;-75
2023/04/18 01:17:23;;;;;;;;;;;19.30;49.00;;;;;;10367038;28;797;-76
2023/04/18 01:22:18;;;;;;;;;;;19.30;49.00;;;;;;10367967;28;825;-75
2023/04/18 01:27:13;;;;;;;;;;;19.30;49.00;;;;;;10366212;28;865;-75
2023/04/18 01:32:09;;;;;;;;;;;19.30;48.90;;;;;;10365366;28;1890;-75
2023/04/18 01:37:04;;;;;;;;;;;19.30;48.90;;;;;;10366086;28;781;-76
2023/04/18 01:42:00;;;;;;;;;;;19.20;48.90;;;;;;10366559;28;877;-75
2023/04/18 01:46:56;;;;;;;;;;;19.20;49.00;;;;;;10374604;28;1613;-75
2023/04/18 01:51:51;;;;;;;;;;;19.20;48.90;;;;;;10374355;28;1952;-76
2023/04/18 01:56:47;;;;;;;;;;;19.30;48.90;;;;;;10373132;28;1152;-76
2023/04/18 02:01:42;;;;;;;;;;;19.20;48.80;;;;;;10373988;28;834;-76
2023/04/18 02:06:37;;;;;;;;;;;19.30;48.90;;;;;;10372658;28;889;-75
2023/04/18 02:11:33;;;;;;;;;;;19.20;48.90;;;;;;10372979;28;1906;-76
2023/04/18 02:16:28;;;;;;;;;;;19.20;48.90;;;;;;10372865;28;854;-75
2023/04/18 02:21:23;;;;;;;;;;;19.20;48.90;;;;;;10372697;28;904;-75
2023/04/18 02:26:19;;;;;;;;;;;19.20;48.80;;;;;;10372520;28;910;-75
2023/04/18 02:31:14;;;;;;;;;;;19.20;48.90;;;;;;10372260;28;1897;-76
2023/04/18 02:36:10;;;;;;;;;;;19.20;48.90;;;;;;10372137;28;874;-75
2023/04/18 02:41:05;;;;;;;;;;;19.20;48.80;;;;;;10371890;28;917;-75
2023/04/18 02:46:00;;;;;;;;;;;19.20;48.90;;;;;;10371833;28;770;-75
2023/04/18 02:50:56;;;;;;;;;;;19.20;49.50;;;;;;10371621;28;1956;-76
2023/04/18 02:55:51;;;;;;;;;;;19.20;48.80;;;;;;10370056;28;1411;-75
2023/04/18 03:00:48;;;;;;;;;;;19.20;48.90;;;;;;10371179;28;837;-75
2023/04/18 03:05:44;;;;;;;;;;;19.20;49.00;;;;;;10371028;28;941;-75
2023/04/18 03:10:40;;;;;;;;;;;19.10;48.90;;;;;;10371529;28;1901;-75
2023/04/18 03:15:35;;;;;;;;;;;19.10;48.90;;;;;;10370727;28;861;-75
2023/04/18 03:20:30;;;;;;;;;;;19.20;48.90;;;;;;10370314;28;890;-75
2023/04/18 03:25:26;;;;;;;;;;;19.10;48.80;;;;;;10369992;28;1013;-76
2023/04/18 03:30:21;;;;;;;;;;;19.10;48.90;;;;;;10369896;28;1905;-75
2023/04/18 03:35:17;;;;;;;;;;;19.10;49.00;;;;;;10370930;28;904;-75
2023/04/18 03:40:12;;;;;;;;;;;19.10;48.90;;;;;;10369570;28;870;-75
2023/04/18 03:45:07;;;;;;;;;;;19.10;49.00;;;;;;10369396;28;952;-76
2023/04/18 03:50:03;;;;;;;;;;;19.10;49.00;;;;;;10369202;28;1906;-75
2023/04/18 03:54:58;;;;;;;;;;;19.00;49.00;;;;;;10369505;28;1337;-76
2023/04/18 03:59:54;;;;;;;;;;;19.10;49.10;;;;;;10368316;28;904;-75
2023/04/18 04:04:49;;;;;;;;;;;19.10;49.00;;;;;;10368890;28;901;-75
2023/04/18 04:09:44;;;;;;;;;;;19.00;49.00;;;;;;10368454;28;786;-75
2023/04/18 04:14:40;;;;;;;;;;;19.00;49.00;;;;;;10368249;28;1906;-75
2023/04/18 04:19:35;;;;;;;;;;;19.00;49.10;;;;;;10367626;28;901;-76
2023/04/18 04:24:32;;;;;;;;;;;19.00;49.10;;;;;;10367911;28;838;-75
2023/04/18 04:29:30;;;;;;;;;;;19.00;49.00;;;;;;10367743;28;781;-75
2023/04/18 04:34:25;;;;;;;;;;;19.00;49.00;;;;;;10368132;28;1909;-75
2023/04/18 04:39:21;;;;;;;;;;;19.10;49.00;;;;;;10367457;28;905;-75
2023/04/18 04:44:16;;;;;;;;;;;19.10;49.00;;;;;;10366828;28;1011;-76
2023/04/18 04:49:12;;;;;;;;;;;19.10;49.00;;;;;;10367070;28;977;-75
2023/04/18 04:54:07;;;;;;;;;;;19.10;48.90;;;;;;10367939;28;1930;-75
2023/04/18 04:59:02;;;;;;;;;;;19.10;48.90;;;;;;10367237;28;1330;-75
2023/04/18 05:03:58;;;;;;;;;;;19.10;49.00;;;;;;10366796;28;781;-75
2023/04/18 05:08:55;;;;;;;;;;;19.10;49.00;;;;;;10366587;28;783;-75
2023/04/18 05:13:50;;;;;;;;;;;19.10;48.90;;;;;;10366373;28;1976;-75
2023/04/18 05:18:46;;;;;;;;;;;19.10;48.90;;;;;;10371773;28;878;-75
2023/04/18 05:23:41;;;;;;;;;;;19.10;48.90;;;;;;10380062;28;793;-75
2023/04/18 05:28:37;;;;;;;;;;;19.10;49.00;;;;;;10380598;28;751;-75
2023/04/18 05:33:32;;;;;;;;;;;19.20;48.90;;;;;;10379228;28;1965;-75
2023/04/18 05:38:27;;;;;;;;;;;19.10;48.90;;;;;;10380419;28;893;-76
2023/04/18 05:43:23;;;;;;;;;;;19.10;48.90;;;;;;10380484;28;862;-75
2023/04/18 05:48:18;;;;;;;;;;;19.20;48.90;;;;;;10379627;28;777;-75
2023/04/18 05:53:14;;;;;;;;;;;19.10;48.90;;;;;;10380358;28;1910;-75
2023/04/18 05:58:09;;;;;;;;;;;19.10;48.90;;;;;;10378810;28;1280;-76
2023/04/18 06:03:04;;;;;;;;;;;19.10;48.90;;;;;;10379276;28;968;-76
2023/04/18 06:08:00;;;;;;;;;;;19.10;48.90;;;;;;10379841;28;781;-75
2023/04/18 06:12:55;;;;;;;;;;;19.10;48.90;;;;;;10379327;28;1914;-75
2023/04/18 06:17:51;;;;;;;;;;;19.10;48.90;;;;;;10380447;28;961;-74
2023/04/18 06:22:47;;;;;;;;;;;19.10;48.90;;;;;;10378295;28;1151;-75
2023/04/18 06:27:42;;;;;;;;;;;19.10;48.90;;;;;;10378231;28;929;-76
2023/04/18 06:32:38;;;;;;;;;;;19.10;49.00;;;;;;10371532;28;1910;-75
2023/04/18 06:37:33;;;;;;;;;;;19.10;49.00;;;;;;10372216;28;931;-75
2023/04/18 06:42:29;;;;;;;;;;;19.10;48.90;;;;;;10371908;28;869;-75
2023/04/18 06:47:24;;;;;;;;;;;19.00;48.90;;;;;;10371725;28;821;-75
2023/04/18 06:52:19;;;;;;;;;;;19.00;48.90;;;;;;10371534;28;1901;-75
2023/04/18 06:57:15;;;;;;;;;;;19.00;49.00;;;;;;10372051;28;1405;-75
2023/04/18 07:02:10;;;;;;;;;;;19.00;49.00;;;;;;10370621;28;912;-75
2023/04/18 07:07:05;;;;;;;;;;;19.00;49.00;;;;;;10371206;28;857;-75
2023/04/18 07:12:01;;;;;;;;;;;19.00;49.00;;;;;;10371713;28;1980;-74
2023/04/18 07:16:56;;;;;;;;;;;19.00;49.00;;;;;;10370665;28;911;-76
2023/04/18 07:21:52;;;;;;;;;;;19.00;49.10;;;;;;10370400;28;973;-75
2023/04/18 07:26:48;;;;;;;;;;;19.00;49.00;;;;;;10358022;28;1041;-76
2023/04/18 07:31:43;;;;;;;;;;;19.00;49.10;;;;;;10328143;28;1968;-75
2023/04/18 07:36:38;;;;;;;;;;;19.00;49.00;;;;;;10328579;28;753;-75
2023/04/18 07:41:34;;;;;;;;;;;19.00;49.10;;;;;;10328053;28;878;-75
2023/04/18 07:46:31;;;;;;;;;;;19.00;49.10;;;;;;10328631;28;758;-76
2023/04/18 07:51:30;;;;;;;;;;;19.00;49.10;;;;;;10328734;28;1902;-76
2023/04/18 07:56:25;;;;;;;;;;;19.00;49.10;;;;;;10327089;28;1549;-75
2023/04/18 08:01:23;;;;;;;;;;;19.00;49.10;;;;;;10327589;28;892;-75
2023/04/18 08:06:18;;;;;;;;;;;19.00;49.10;;;;;;10327363;28;957;-76
2023/04/18 08:11:13;;;;;;;;;;;19.00;49.20;;;;;;10328154;28;1911;-76
2023/04/18 08:16:09;;;;;;;;;;;19.00;49.20;;;;;;10327867;28;825;-75
2023/04/18 08:21:04;;;;;;;;;;;19.00;49.10;;;;;;10327519;28;856;-74
2023/04/18 08:26:00;;;;;;;;;;;19.00;49.20;;;;;;10327344;28;864;-76
2023/04/18 08:30:55;;;;;;;;;;;19.00;49.20;;;;;;10326940;28;1902;-76
2023/04/18 08:35:51;;;;;;;;;;;19.00;49.10;;;;;;10326364;28;964;-75
2023/04/18 08:40:46;;;;;;;;;;;19.00;49.00;;;;;;10326168;28;810;-75
2023/04/18 08:45:41;;;;;;;;;;;19.00;49.20;;;;;;10326690;28;825;-76
2023/04/18 08:50:37;;;;;;;;;;;19.00;49.20;;;;;;10326470;28;1965;-75
2023/04/18 08:55:32;;;;;;;;;;;18.90;49.10;;;;;;10325198;28;1335;-75
2023/04/18 09:00:28;;;;;;;;;;;18.90;49.10;;;;;;10325710;28;773;-76
2023/04/18 09:05:24;;;;;;;;;;;19.00;49.20;;;;;;10325567;28;872;-75
2023/04/18 09:10:19;;;;;;;;;;;19.00;49.10;;;;;;10325476;28;1918;-76
2023/04/18 09:15:14;;;;;;;;;;;19.00;49.10;;;;;;10324825;28;869;-76
2023/04/18 09:20:10;;;;;;;;;;;19.00;49.20;;;;;;10324679;28;1116;-76
2023/04/18 09:25:07;;;;;;;;;;;19.00;49.10;;;;;;10325242;28;1130;-76
2023/04/18 09:30:02;;;;;;;;;;;18.90;49.10;;;;;;10325106;28;801;-75
2023/04/18 09:34:57;;;;;;;;;;;18.90;49.10;;;;;;10325503;28;1902;-74
2023/04/18 09:39:53;;;;;;;;;;;18.90;49.20;;;;;;10324974;28;963;-72
2023/04/18 09:44:48;;;;;;;;;;;18.90;49.30;;;;;;10324807;28;775;-75
2023/04/18 09:49:43;;;;;;;;;;;18.80;49.30;;;;;;10325085;28;798;-75
2023/04/18 09:54:39;;;;;;;;;;;18.80;49.30;;;;;;10324342;28;1910;-75
2023/04/18 09:59:34;;;;;;;;;;;18.90;49.30;;;;;;10325563;28;887;-75
2023/04/18 10:04:29;;;;;;;;;;;18.90;49.20;;;;;;10327469;28;892;-78
2023/04/18 10:09:25;;;;;;;;;;;18.90;49.30;;;;;;10332032;28;839;-76
2023/04/18 10:14:20;;;;;;;;;;;18.80;49.20;;;;;;10331152;28;1918;-75
2023/04/18 10:19:16;;;;;;;;;;;18.90;49.40;;;;;;10331701;28;947;-75
2023/04/18 10:24:11;;;;;;;;;;;18.90;49.30;;;;;;10328561;28;1010;-75
2023/04/18 10:29:08;;;;;;;;;;;18.80;49.20;;;;;;10331115;28;929;-75
2023/04/18 10:34:03;;;;;;;;;;;18.90;49.30;;;;;;10330846;28;1914;-75
2023/04/18 10:38:58;;;;;;;;;;;18.80;49.30;;;;;;10330913;28;849;-75
2023/04/18 10:43:54;;;;;;;;;;;18.90;49.40;;;;;;10330395;28;862;-75
2023/04/18 10:48:52;;;;;;;;;;;18.80;49.30;;;;;;10330889;28;866;-77
2023/04/18 10:53:47;;;;;;;;;;;18.90;49.40;;;;;;10330100;28;1958;-77
2023/04/18 10:58:42;;;;;;;;;;;18.90;49.30;;;;;;10329998;28;1163;-75
2023/04/18 11:03:38;;;;;;;;;;;18.90;49.40;;;;;;10329527;28;1229;-75
2023/04/18 11:08:33;;;;;;;;;;;18.90;49.40;;;;;;10329739;28;860;-76
2023/04/18 11:13:28;;;;;;;;;;;18.90;49.40;;;;;;10329121;28;1914;-75
2023/04/18 11:18:24;;;;;;;;;;;18.90;49.30;;;;;;10328163;28;976;-75
2023/04/18 11:23:21;;;;;;;;;;;18.90;49.30;;;;;;10329217;28;787;-75
2023/04/18 11:28:17;;;;;;;;;;;18.90;49.30;;;;;;10330371;28;875;-75
2023/04/18 11:33:12;;;;;;;;;;;18.90;49.40;;;;;;10329376;28;1905;-75
2023/04/18 11:38:07;;;;;;;;;;;18.90;49.30;;;;;;10328631;28;869;-75
2023/04/18 11:43:03;;;;;;;;;;;18.90;49.30;;;;;;10329053;28;813;-75
2023/04/18 11:47:58;;;;;;;;;;;18.90;49.20;;;;;;10329561;28;928;-75
2023/04/18 11:52:54;;;;;;;;;;;18.90;49.30;;;;;;10328163;28;1906;-76
2023/04/18 11:57:50;;;;;;;;;;;18.90;49.30;;;;;;10327849;28;1629;-75
2023/04/18 12:02:45;;;;;;;;;;;18.90;49.30;;;;;;10328283;28;850;-76
2023/04/18 12:07:41;;;;;;;;;;;19.00;49.30;;;;;;10327533;28;833;-68
2023/04/18 12:12:36;;;;;;;;;;;19.00;49.30;;;;;;10326587;28;1909;-69
2023/04/18 12:17:31;;;;;;;;;;;19.00;49.30;;;;;;10327108;28;856;-68
2023/04/18 12:22:27;;;;;;;;;;;19.00;49.40;;;;;;10327540;28;749;-68
2023/04/18 12:27:22;;;;;;;;;;;19.10;49.40;;;;;;10326424;28;948;-69
2023/04/18 12:32:18;;;;;;;;;;;19.10;49.40;;;;;;10308507;28;1898;-68
2023/04/18 12:37:13;;;;;;;;;;;19.10;49.50;;;;;;10327030;28;765;-68
2023/04/18 12:42:08;;;;;;;;;;;19.00;49.50;;;;;;10326533;28;786;-68
2023/04/18 12:47:04;;;;;;;;;;;19.10;49.50;;;;;;10325489;28;849;-69
2023/04/18 12:51:59;;;;;;;;;;;19.10;49.60;;;;;;10325325;28;1906;-69
2023/04/18 12:56:54;;;;;;;;;;;19.10;49.60;;;;;;10326436;28;1259;-69
2023/04/18 13:01:50;;;;;;;;;;;19.10;49.70;;;;;;10326205;28;845;-68
2023/04/18 13:06:45;;;;;;;;;;;19.10;49.70;;;;;;10326634;28;865;-69
2023/04/18 13:11:40;;;;;;;;;;;19.10;49.70;;;;;;10325661;28;1981;-69
2023/04/18 13:16:36;;;;;;;;;;;19.10;49.60;;;;;;10325853;28;948;-68
2023/04/18 13:21:31;;;;;;;;;;;19.10;49.70;;;;;;10325106;28;845;-69
2023/04/18 13:26:27;;;;;;;;;;;19.10;49.60;;;;;;10325629;28;860;-68
2023/04/18 13:31:22;;;;;;;;;;;19.10;49.60;;;;;;10324841;28;1901;-68
2023/04/18 13:36:17;;;;;;;;;;;19.10;49.70;;;;;;10325411;28;861;-71
2023/04/18 13:41:13;;;;;;;;;;;19.10;49.60;;;;;;10330176;28;766;-72
2023/04/18 13:46:08;;;;;;;;;;;19.10;49.60;;;;;;10332728;28;877;-69
2023/04/18 13:51:03;;;;;;;;;;;19.10;49.60;;;;;;10332541;28;1910;-68
2023/04/18 13:56:00;;;;;;;;;;;19.10;49.60;;;;;;10332941;28;1072;-68
2023/04/18 14:00:55;;;;;;;;;;;19.10;49.70;;;;;;10332151;28;856;-68
2023/04/18 14:05:51;;;;;;;;;;;19.10;49.60;;;;;;10333006;28;873;-68
2023/04/18 14:10:46;;;;;;;;;;;19.10;49.70;;;;;;10331971;28;1973;-67
2023/04/18 14:15:41;;;;;;;;;;;19.10;49.60;;;;;;10332468;28;756;-66
2023/04/18 14:20:37;;;;;;;;;;;19.10;49.60;;;;;;10333006;28;874;-67
2023/04/18 14:25:33;;;;;;;;;;;19.00;49.60;;;;;;10332302;28;810;-67
2023/04/18 14:30:28;;;;;;;;;;;19.00;49.60;;;;;;10330583;28;1906;-67
2023/04/18 14:35:24;;;;;;;;;;;19.00;49.60;;;;;;10331164;28;812;-67
2023/04/18 14:40:19;;;;;;;;;;;19.00;49.60;;;;;;10331544;28;802;-68
2023/04/18 14:45:18;;;;;;;;;;;19.00;49.70;;;;;;10330849;28;833;-68
2023/04/18 14:50:14;;;;;;;;;;;19.00;49.60;;;;;;10329550;28;1163;-68
2023/04/18 14:55:09;;;;;;;;;;;19.10;49.70;;;;;;10330793;28;1906;-68
2023/04/18 15:00:06;;;;;;;;;;;19.10;49.50;;;;;;10330740;28;801;-68
2023/04/18 15:05:02;;;;;;;;;;;19.20;50.10;;;;;;10329963;28;840;-69
2023/04/18 15:09:57;;;;;;;;;;;19.20;49.50;;;;;;10329836;28;822;-69
2023/04/18 15:14:53;;;;;;;;;;;19.20;49.50;;;;;;10329602;28;1910;-68
2023/04/18 15:19:48;;;;;;;;;;;19.30;49.40;;;;;;10330369;28;942;-68
2023/04/18 15:24:44;;;;;;;;;;;19.40;49.30;;;;;;10330196;28;937;-68
2023/04/18 15:29:39;;;;;;;;;;;19.50;49.20;;;;;;10329751;28;795;-68
2023/04/18 15:34:35;;;;;;;;;;;19.50;49.20;;;;;;10328753;28;1894;-68
2023/04/18 15:39:30;;;;;;;;;;;19.50;49.20;;;;;;10328628;28;770;-68
2023/04/18 15:44:25;;;;;;;;;;;19.50;49.20;;;;;;10328633;28;850;-68
2023/04/18 15:49:21;;;;;;;;;;;19.40;49.20;;;;;;10328965;28;782;-68
2023/04/18 15:54:16;;;;;;;;;;;19.40;49.30;;;;;;10328889;28;1901;-68
2023/04/18 15:59:12;;;;;;;;;;;19.30;49.30;;;;;;10327843;28;1283;-68
2023/04/18 16:04:07;;;;;;;;;;;19.30;49.40;;;;;;10328174;28;802;-68
2023/04/18 16:09:05;;;;;;;;;;;19.30;49.40;;;;;;10327479;28;775;-68
2023/04/18 16:14:00;;;;;;;;;;;19.30;49.40;;;;;;10328103;28;1975;-68
2023/04/18 16:18:56;;;;;;;;;;;19.20;49.30;;;;;;10328360;28;877;-68
2023/04/18 16:23:51;;;;;;;;;;;19.20;49.40;;;;;;10326558;28;996;-68
2023/04/18 16:28:47;;;;;;;;;;;19.10;49.40;;;;;;10326710;28;825;-68
2023/04/18 16:33:44;;;;;;;;;;;19.10;49.40;;;;;;10326407;28;1961;-68
2023/04/18 16:38:39;;;;;;;;;;;19.10;49.50;;;;;;10326340;28;997;-68
2023/04/18 16:43:35;;;;;;;;;;;19.10;49.40;;;;;;10326203;28;890;-68
2023/04/18 16:48:30;;;;;;;;;;;19.10;49.40;;;;;;10326048;28;852;-68
2023/04/18 16:53:26;;;;;;;;;;;19.10;49.50;;;;;;10325721;28;1910;-73
2023/04/18 16:58:22;;;;;;;;;;;19.20;49.50;;;;;;10326462;28;1142;-68
2023/04/18 17:03:17;;;;;;;;;;;19.20;49.40;;;;;;10325718;28;918;-68
2023/04/18 17:08:13;;;;;;;;;;;19.20;49.40;;;;;;10326214;28;778;-68
2023/04/18 17:13:08;;;;;;;;;;;19.20;49.40;;;;;;10324228;28;1977;-68
2023/04/18 17:18:03;;;;;;;;;;;19.20;49.40;;;;;;10326753;28;837;-68
2023/04/18 17:22:59;;;;;;;;;;;19.10;49.40;;;;;;10325308;28;1500;-68
2023/04/18 17:27:54;;;;;;;;;;;19.10;49.50;;;;;;10325308;28;898;-68
2023/04/18 17:32:50;;;;;;;;;;;19.20;49.50;;;;;;10325774;28;1952;-68
2023/04/18 17:37:45;;;;;;;;;;;19.10;49.40;;;;;;10324432;28;944;-68
2023/04/18 17:42:40;;;;;;;;;;;19.20;49.40;;;;;;10325591;28;789;-69
2023/04/18 17:47:36;;;;;;;;;;;19.10;49.40;;;;;;10325449;28;917;-68
2023/04/18 17:52:31;;;;;;;;;;;19.10;49.40;;;;;;10324070;28;1961;-68
2023/04/18 17:57:29;;;;;;;;;;;19.20;49.40;;;;;;10324765;28;1282;-68
2023/04/18 18:02:26;;;;;;;;;;;19.20;49.40;;;;;;10325202;28;802;-68
2023/04/18 18:07:22;;;;;;;;;;;19.10;49.40;;;;;;10325028;28;910;-68
2023/04/18 18:12:17;;;;;;;;;;;19.10;49.40;;;;;;10324857;28;1914;-68
2023/04/18 18:17:12;;;;;;;;;;;19.20;49.40;;;;;;10324257;28;766;-68
2023/04/18 18:22:08;;;;;;;;;;;19.20;49.40;;;;;;10323699;28;766;-68
2023/04/18 18:27:03;;;;;;;;;;;19.20;49.40;;;;;;10329379;28;1038;-69
2023/04/18 18:31:59;;;;;;;;;;;19.20;49.50;;;;;;10331875;28;1914;-68
2023/04/18 18:36:54;;;;;;;;;;;19.20;49.50;;;;;;10332319;28;813;-68
2023/04/18 18:41:50;;;;;;;;;;;19.20;49.40;;;;;;10330941;28;810;-68
2023/04/18 18:46:46;;;;;;;;;;;19.20;49.40;;;;;;10331361;28;864;-68
2023/04/18 18:51:43;;;;;;;;;;;19.20;49.40;;;;;;10330527;28;1963;-68
2023/04/18 18:56:38;;;;;;;;;;;19.20;49.40;;;;;;10331184;28;1108;-68
2023/04/18 19:01:34;;;;;;;;;;;19.20;49.30;;;;;;10330436;28;1007;-68
2023/04/18 19:06:30;;;;;;;;;;;19.20;49.30;;;;;;10330106;28;789;-68
2023/04/18 19:11:25;;;;;;;;;;;19.20;49.30;;;;;;10329741;28;1985;-68
2023/04/18 19:16:21;;;;;;;;;;;19.20;49.40;;;;;;10330268;28;851;-68
2023/04/18 19:21:16;;;;;;;;;;;19.20;49.30;;;;;;10330078;28;810;-68
2023/04/18 19:26:12;;;;;;;;;;;19.20;49.30;;;;;;10329824;28;846;-68
2023/04/18 19:31:08;;;;;;;;;;;19.30;49.40;;;;;;10329651;28;1947;-69
2023/04/18 19:36:03;;;;;;;;;;;19.20;49.20;;;;;;10328364;28;821;-68
2023/04/18 19:40:59;;;;;;;;;;;19.20;49.30;;;;;;10329136;28;834;-68
2023/04/18 19:45:54;;;;;;;;;;;19.20;49.30;;;;;;10328547;28;786;-68
2023/04/18 19:50:50;;;;;;;;;;;19.20;49.20;;;;;;10328825;28;1906;-68
2023/04/18 19:55:45;;;;;;;;;;;19.20;49.80;;;;;;10328232;28;1195;-68
2023/04/18 20:00:40;;;;;;;;;;;19.20;49.20;;;;;;10328430;28;857;-68
2023/04/18 20:05:36;;;;;;;;;;;19.20;49.30;;;;;;10328633;28;803;-67
2023/04/18 20:10:31;;;;;;;;;;;19.20;49.30;;;;;;10326831;28;1914;-67
2023/04/18 20:15:27;;;;;;;;;;;19.20;49.20;;;;;;10328042;28;865;-67
2023/04/18 20:20:22;;;;;;;;;;;19.20;49.20;;;;;;10327231;28;781;-67
2023/04/18 20:25:18;;;;;;;;;;;19.20;49.20;;;;;;10326330;28;826;-67
2023/04/18 20:30:13;;;;;;;;;;;19.20;49.20;;;;;;10327591;28;810;-67
2023/04/18 20:35:08;;;;;;;;;;;19.20;49.90;;;;;;10325831;28;1957;-67
2023/04/18 20:40:06;;;;;;;;;;;19.20;49.30;;;;;;10327429;28;887;-67
2023/04/18 20:45:01;;;;;;;;;;;19.20;49.20;;;;;;10326283;28;786;-67
2023/04/18 20:49:57;;;;;;;;;;;19.10;49.20;;;;;;10325817;28;885;-67
2023/04/18 20:54:52;;;;;;;;;;;19.10;49.30;;;;;;10326333;28;1894;-67
2023/04/18 20:59:47;;;;;;;;;;;19.10;49.40;;;;;;10326536;28;746;-67
2023/04/18 21:04:45;;;;;;;;;;;19.10;49.40;;;;;;10325661;28;978;-67
2023/04/18 21:09:40;;;;;;;;;;;19.00;49.40;;;;;;10325588;28;815;-67
2023/04/18 21:14:36;;;;;;;;;;;19.00;49.30;;;;;;10324865;28;1914;-67
2023/04/18 21:19:31;;;;;;;;;;;19.00;49.30;;;;;;10326044;28;820;-67
2023/04/18 21:24:26;;;;;;;;;;;19.00;49.40;;;;;;10325082;28;1049;-67
2023/04/18 21:29:22;;;;;;;;;;;19.10;49.40;;;;;;10325248;28;789;-67
2023/04/18 21:34:17;;;;;;;;;;;19.00;49.40;;;;;;10324598;28;1906;-67
2023/04/18 21:39:13;;;;;;;;;;;19.00;49.50;;;;;;10325101;28;835;-67
2023/04/18 21:44:09;;;;;;;;;;;19.00;49.50;;;;;;10324934;28;896;-67
2023/04/18 21:49:04;;;;;;;;;;;19.00;49.50;;;;;;10325418;28;858;-67
2023/04/18 21:54:00;;;;;;;;;;;19.00;49.50;;;;;;10324142;28;1906;-67
2023/04/18 21:58:55;;;;;;;;;;;19.00;49.50;;;;;;10325468;28;1399;-67
2023/04/18 22:03:51;;;;;;;;;;;18.90;49.50;;;;;;10332494;28;853;-67
2023/04/18 22:08:47;;;;;;;;;;;18.90;49.60;;;;;;10332287;28;937;-67
2023/04/18 22:13:43;;;;;;;;;;;18.90;49.50;;;;;;10332168;28;1914;-67
2023/04/18 22:18:39;;;;;;;;;;;18.90;49.50;;;;;;10332552;28;876;-67
2023/04/18 22:23:34;;;;;;;;;;;18.90;49.60;;;;;;10331102;28;865;-67
2023/04/18 22:28:29;;;;;;;;;;;18.90;49.60;;;;;;10331444;28;969;-67
2023/04/18 22:33:25;;;;;;;;;;;18.90;49.60;;;;;;10331285;28;1910;-67
2023/04/18 22:38:20;;;;;;;;;;;18.90;49.60;;;;;;10330483;28;1003;-67
2023/04/18 22:43:21;;;;;;;;;;;18.90;49.60;;;;;;10330961;28;873;-67
2023/04/18 22:48:16;;;;;;;;;;;18.90;49.60;;;;;;10331678;28;880;-67
2023/04/18 22:53:12;;;;;;;;;;;18.80;49.60;;;;;;10331002;28;1973;-67
2023/04/18 22:58:08;;;;;;;;;;;18.80;49.60;;;;;;10329703;28;1270;-67
2023/04/18 23:03:03;;;;;;;;;;;18.90;49.60;;;;;;10331015;28;869;-67
2023/04/18 23:07:59;;;;;;;;;;;18.80;49.60;;;;;;10330781;28;908;-67
2023/04/18 23:12:54;;;;;;;;;;;18.80;49.60;;;;;;10329458;28;1983;-67
2023/04/18 23:17:49;;;;;;;;;;;18.80;49.60;;;;;;10329753;28;738;-67
2023/04/18 23:22:46;;;;;;;;;;;18.80;49.60;;;;;;10329545;28;825;-67
2023/04/18 23:27:41;;;;;;;;;;;18.80;49.60;;;;;;10329284;28;954;-67
2023/04/18 23:32:37;;;;;;;;;;;18.80;49.70;;;;;;10329694;28;1964;-67
2023/04/18 23:37:32;;;;;;;;;;;18.80;49.70;;;;;;10329670;28;861;-67
2023/04/18 23:42:27;;;;;;;;;;;18.80;49.70;;;;;;10328748;28;873;-68
2023/04/18 23:47:23;;;;;;;;;;;18.80;49.70;;;;;;10327903;28;1377;-67
2023/04/18 23:52:18;;;;;;;;;;;18.80;49.60;;;;;;10328248;28;1906;-67
2023/04/18 23:57:13;;;;;;;;;;;18.70;49.60;;;;;;10328261;28;1422;-67
